Time;durP1;ratioP1;P1;durP2;ratioP2;P2;SDS_P1;SDS_P2;PMS_P1;PMS_P2;Temp;Humidity;BMP_temperature;BMP_pressure;BME280_temperature;BME280_humidity;BME280_pressure;Samples;Min_cycle;Max_cycle;Signal;HPM_P1;HPM_P2
2021/06/26 00:00:29;;;;;;;10.23;9.23;;;;;;;15.30;84.56;100800.41;5022526;28;20367;-77
2021/06/26 00:02:54;;;;;;;9.10;8.20;;;;;;;15.24;84.74;100798.47;5031259;28;20037;-78
2021/06/26 00:05:19;;;;;;;9.27;8.35;;;;;;;15.19;85.70;100795.50;5031456;28;20033;-78
2021/06/26 00:07:44;;;;;;;9.40;8.50;;;;;;;15.14;86.03;100803.19;5031490;28;20034;-77
2021/06/26 00:10:11;;;;;;;9.90;8.48;;;;;;;15.10;86.18;100802.69;5043620;28;20048;-78
2021/06/26 00:12:36;;;;;;;9.02;8.10;;;;;;;15.05;86.35;100800.56;5032155;28;20109;-78
2021/06/26 00:15:05;;;;;;;8.05;7.25;;;;;;;15.05;86.05;100805.06;5014015;28;20046;-78
2021/06/26 00:17:30;;;;;;;9.85;8.52;;;;;;;15.07;85.01;100800.38;5015330;28;20042;-77
2021/06/26 00:19:57;;;;;;;12.68;10.70;;;;;;;15.11;84.62;100799.03;5022638;28;20414;-77
2021/06/26 00:22:22;;;;;;;10.00;8.85;;;;;;;15.10;84.83;100799.22;5019729;28;20099;-77
2021/06/26 00:24:48;;;;;;;9.18;8.00;;;;;;;15.05;85.48;100802.41;5039540;28;20409;-77
2021/06/26 00:27:13;;;;;;;8.27;7.47;;;;;;;15.03;85.37;100801.72;5046024;28;20029;-77
2021/06/26 00:29:38;;;;;;;8.48;7.28;;;;;;;15.04;85.63;100816.69;5029971;28;20041;-78
2021/06/26 00:32:04;;;;;;;8.27;7.47;;;;;;;14.95;85.50;100805.28;5025746;28;20419;-78
2021/06/26 00:34:29;;;;;;;8.07;7.15;;;;;;;14.89;86.27;100803.28;5028613;28;20041;-77
2021/06/26 00:36:55;;;;;;;8.50;7.60;;;;;;;14.84;86.61;100802.97;5028413;28;20052;-77
2021/06/26 00:39:20;;;;;;;7.80;7.00;;;;;;;14.82;86.74;100800.47;5030558;28;20049;-77
2021/06/26 00:41:45;;;;;;;9.23;7.70;;;;;;;14.79;87.16;100798.16;5045929;28;20119;-77
2021/06/26 00:44:11;;;;;;;8.65;7.68;;;;;;;14.76;87.43;100806.50;5016478;28;20460;-77
2021/06/26 00:46:37;;;;;;;8.02;7.22;;;;;;;14.74;86.89;100807.69;5021483;28;20060;-77
2021/06/26 00:49:03;;;;;;;7.72;6.95;;;;;;;14.70;87.01;100811.69;5040792;28;20150;-77
2021/06/26 00:51:29;;;;;;;7.93;7.13;;;;;;;14.69;87.04;100815.38;5028370;28;20029;-77
2021/06/26 00:53:54;;;;;;;8.10;7.10;;;;;;;14.64;87.39;100803.41;5046603;28;20084;-78
2021/06/26 00:56:20;;;;;;;8.13;7.32;;;;;;;14.62;86.97;100809.88;5045346;28;20406;-77
2021/06/26 00:58:46;;;;;;;7.93;6.97;;;;;;;14.55;87.33;100803.59;5024372;28;20129;-77
2021/06/26 01:01:12;;;;;;;7.80;7.03;;;;;;;14.52;87.49;100802.06;5017772;28;20037;-77
2021/06/26 01:03:37;;;;;;;7.80;7.00;;;;;;;14.49;87.81;100793.59;5045326;28;20045;-77
2021/06/26 01:06:03;;;;;;;8.80;7.90;;;;;;;14.46;87.70;100789.44;5024573;28;20042;-77
2021/06/26 01:08:28;;;;;;;8.27;7.25;;;;;;;14.46;87.86;100789.44;5035425;28;20060;-77
2021/06/26 01:10:54;;;;;;;10.77;9.60;;;;;;;14.53;86.89;100793.06;5020525;28;20050;-77
2021/06/26 01:13:19;;;;;;;9.65;8.52;;;;;;;14.57;87.00;100794.44;5038709;28;20065;-78
2021/06/26 01:15:44;;;;;;;11.02;9.23;;;;;;;14.62;86.24;100793.91;5033734;28;20032;-78
2021/06/26 01:18:10;;;;;;;12.85;10.45;;;;;;;14.68;86.03;100784.41;5035802;28;20634;-78
2021/06/26 01:20:35;;;;;;;10.55;9.27;;;;;;;14.70;86.31;100783.22;5021978;28;20107;-77
2021/06/26 01:23:02;;;;;;;9.77;8.30;;;;;;;14.65;86.60;100773.09;5030994;28;20064;-77
2021/06/26 01:25:29;;;;;;;9.85;8.63;;;;;;;14.67;86.14;100780.91;5028004;28;20038;-77
2021/06/26 01:27:57;;;;;;;11.63;9.70;;;;;;;14.68;86.10;100782.56;5026033;28;20037;-77
2021/06/26 01:30:30;;;;;;;10.55;8.63;;;;;;;14.70;86.48;100779.75;5033104;28;20030;-77
2021/06/26 01:32:56;;;;;;;10.27;8.23;;;;;;;14.71;86.15;100779.59;5023317;28;20103;-77
2021/06/26 01:35:22;;;;;;;10.23;9.20;;;;;;;14.73;86.15;100779.41;5024968;28;20042;-78
2021/06/26 01:37:47;;;;;;;11.05;9.38;;;;;;;14.74;85.79;100775.75;5033370;28;20044;-78
2021/06/26 01:40:16;;;;;;;12.00;10.32;;;;;;;14.77;85.65;100765.56;5026909;28;20056;-77
2021/06/26 01:42:42;;;;;;;12.18;9.98;;;;;;;14.76;85.54;100771.09;5029834;28;20030;-77
2021/06/26 01:45:08;;;;;;;9.57;8.63;;;;;;;14.73;86.19;100774.91;5016405;28;20060;-77
2021/06/26 01:47:34;;;;;;;10.55;9.45;;;;;;;14.73;85.91;100769.59;5029857;28;20077;-77
2021/06/26 01:50:00;;;;;;;10.55;8.40;;;;;;;14.74;86.20;100767.75;5041684;28;20503;-78
2021/06/26 01:52:26;;;;;;;9.93;8.93;;;;;;;14.74;86.18;100770.41;5019536;28;20192;-77
2021/06/26 01:54:51;;;;;;;9.85;8.85;;;;;;;14.74;85.73;100770.41;5020657;28;20049;-77
2021/06/26 01:57:16;;;;;;;9.18;8.02;;;;;;;14.71;86.14;100760.94;5030950;28;20033;-77
2021/06/26 01:59:41;;;;;;;11.48;9.77;;;;;;;14.73;85.72;100763.41;5020813;28;20061;-77
2021/06/26 02:02:07;;;;;;;9.18;7.32;;;;;;;14.71;85.89;100768.13;5028100;28;20044;-77
2021/06/26 02:04:33;;;;;;;8.77;7.53;;;;;;;14.72;85.72;100761.78;5032232;28;20034;-77
2021/06/26 02:06:58;;;;;;;10.27;8.75;;;;;;;14.69;85.51;100759.47;5033073;28;20048;-77
2021/06/26 02:09:23;;;;;;;8.10;7.20;;;;;;;14.69;85.83;100762.13;5025622;28;20120;-77
2021/06/26 02:11:49;;;;;;;8.90;7.80;;;;;;;14.69;85.54;100762.13;5035290;28;20057;-77
2021/06/26 02:14:14;;;;;;;9.82;7.68;;;;;;;14.69;85.70;100760.28;5040368;28;20033;-77
2021/06/26 02:16:40;;;;;;;9.75;8.35;;;;;;;14.70;85.61;100771.75;5031419;28;20026;-77
2021/06/26 02:19:05;;;;;;;10.05;8.10;;;;;;;14.67;85.94;100764.94;5032434;28;20030;-77
2021/06/26 02:21:31;;;;;;;8.48;7.57;;;;;;;14.67;85.90;100767.63;5031360;28;20452;-77
2021/06/26 02:23:56;;;;;;;7.95;7.15;;;;;;;14.67;85.76;100772.13;5029526;28;20037;-77
2021/06/26 02:26:21;;;;;;;9.25;8.20;;;;;;;14.64;85.65;100774.13;5027724;28;20681;-77
2021/06/26 02:28:47;;;;;;;9.65;7.97;;;;;;;14.59;86.31;100773.81;5018217;28;20045;-77
2021/06/26 02:31:12;;;;;;;8.65;7.75;;;;;;;14.55;86.59;100776.97;5029464;28;20041;-77
2021/06/26 02:33:37;;;;;;;9.07;8.13;;;;;;;14.48;86.68;100779.47;5033247;28;20529;-77
2021/06/26 02:36:03;;;;;;;8.20;7.40;;;;;;;14.41;86.79;100775.81;5047221;28;20045;-77
2021/06/26 02:38:29;;;;;;;8.15;7.30;;;;;;;14.37;87.24;100770.03;5029790;28;20029;-77
2021/06/26 02:40:54;;;;;;;7.88;6.82;;;;;;;14.35;86.94;100771.16;5015573;28;20444;-77
2021/06/26 02:43:19;;;;;;;9.27;8.13;;;;;;;14.37;86.21;100774.50;5020820;28;20038;-77
2021/06/26 02:45:48;;;;;;;12.52;9.95;;;;;;;14.43;85.99;100777.31;5014436;28;20045;-77
2021/06/26 02:48:13;;;;;;;11.43;9.55;;;;;;;14.45;85.70;100774.50;5030291;28;20057;-77
2021/06/26 02:50:40;;;;;;;10.65;9.40;;;;;;;14.45;85.50;100775.31;5020060;28;20714;-77
2021/06/26 02:53:05;;;;;;;10.98;9.75;;;;;;;14.49;85.43;100775.81;5025012;28;20083;-77
2021/06/26 02:55:31;;;;;;;10.25;8.68;;;;;;;14.48;85.80;100778.63;5039937;28;20453;-77
2021/06/26 02:57:57;;;;;;;8.63;7.40;;;;;;;14.47;86.14;100777.81;5031543;28;20498;-77
2021/06/26 03:00:23;;;;;;;8.15;7.07;;;;;;;14.45;86.12;100771.81;5029419;28;20102;-77
2021/06/26 03:02:48;;;;;;;8.88;7.97;;;;;;;14.45;86.36;100766.50;5026115;28;20033;-78
2021/06/26 03:05:14;;;;;;;8.18;7.38;;;;;;;14.42;86.60;100772.19;5031629;28;20405;-77
2021/06/26 03:07:39;;;;;;;7.35;6.65;;;;;;;14.39;86.42;100759.19;5030348;28;20037;-77
2021/06/26 03:10:05;;;;;;;8.05;6.88;;;;;;;14.40;86.15;100768.84;5021531;28;20276;-77
2021/06/26 03:12:30;;;;;;;8.20;6.85;;;;;;;14.42;86.12;100766.84;5027781;28;20033;-77
2021/06/26 03:14:55;;;;;;;10.25;8.13;;;;;;;14.42;86.03;100762.34;5018099;28;20034;-77
2021/06/26 03:17:21;;;;;;;8.45;7.65;;;;;;;14.38;86.06;100762.88;5024552;28;20131;-77
2021/06/26 03:19:46;;;;;;;7.82;6.70;;;;;;;14.34;85.74;100761.53;5019951;28;20180;-77
2021/06/26 03:22:11;;;;;;;9.40;7.97;;;;;;;14.38;85.67;100760.22;5026573;28;20514;-77
2021/06/26 03:24:37;;;;;;;10.45;7.53;;;;;;;14.38;85.68;100760.22;5031631;28;20030;-77
2021/06/26 03:27:03;;;;;;;9.93;7.90;;;;;;;14.41;85.63;100760.69;5031254;28;20034;-77
2021/06/26 03:29:28;;;;;;;9.30;8.00;;;;;;;14.39;85.36;100767.19;5030564;28;20114;-77
2021/06/26 03:31:53;;;;;;;8.32;7.50;;;;;;;14.38;85.19;100760.22;5024265;28;20171;-77
2021/06/26 03:34:19;;;;;;;8.35;7.45;;;;;;;14.36;85.59;100765.69;5015138;28;20037;-77
2021/06/26 03:36:44;;;;;;;9.05;8.15;;;;;;;14.34;85.46;100761.53;5025317;28;20520;-77
2021/06/26 03:39:10;;;;;;;7.80;6.88;;;;;;;14.34;85.63;100769.53;5011342;28;20037;-77
2021/06/26 03:41:35;;;;;;;7.43;6.68;;;;;;;14.33;86.20;100776.69;5026454;28;20583;-77
2021/06/26 03:44:01;;;;;;;7.88;6.70;;;;;;;14.32;85.75;100772.34;5025944;28;20064;-77
2021/06/26 03:46:28;;;;;;;8.18;7.30;;;;;;;14.29;86.04;100778.00;5042895;28;20034;-77
2021/06/26 03:48:53;;;;;;;7.60;6.47;;;;;;;14.30;86.28;100776.16;5023965;28;20040;-77
2021/06/26 03:51:19;;;;;;;7.13;6.32;;;;;;;14.28;86.99;100772.84;5026428;28;20045;-77
2021/06/26 03:53:46;;;;;;;8.77;6.75;;;;;;;14.27;86.61;100773.88;5021874;28;20545;-77
2021/06/26 03:56:12;;;;;;;7.38;6.53;;;;;;;14.24;87.44;100777.69;5023730;28;20095;-77
2021/06/26 03:58:37;;;;;;;6.60;5.88;;;;;;;14.24;86.83;100777.69;5029131;28;20410;-77
2021/06/26 04:01:03;;;;;;;6.72;6.03;;;;;;;14.24;87.20;100785.69;5028732;28;20065;-77
2021/06/26 04:03:28;;;;;;;6.82;6.10;;;;;;;14.26;87.09;100793.50;5029656;28;20095;-77
2021/06/26 04:05:54;;;;;;;6.20;5.60;;;;;;;14.29;86.62;100788.66;5014510;28;20036;-77
2021/06/26 04:08:20;;;;;;;7.38;5.80;;;;;;;14.35;86.42;100789.78;5016704;28;20444;-77
2021/06/26 04:10:45;;;;;;;7.47;6.32;;;;;;;14.34;86.55;100786.31;5030320;28;20133;-77
2021/06/26 04:13:11;;;;;;;7.78;6.65;;;;;;;14.35;86.50;100787.97;5031150;28;20044;-77
2021/06/26 04:15:36;;;;;;;9.73;7.45;;;;;;;14.40;86.29;100792.78;5040492;28;20025;-77
2021/06/26 04:18:02;;;;;;;7.55;6.63;;;;;;;14.40;86.40;100792.78;5026737;28;20039;-77
2021/06/26 04:20:28;;;;;;;7.38;6.68;;;;;;;14.43;86.28;100787.13;5021774;28;20072;-77
2021/06/26 04:22:53;;;;;;;7.85;6.18;;;;;;;14.46;86.59;100784.13;5029788;28;20502;-77
2021/06/26 04:25:19;;;;;;;6.43;5.82;;;;;;;14.50;86.45;100788.09;5035289;28;20429;-77
2021/06/26 04:27:44;;;;;;;6.85;6.15;;;;;;;14.50;85.87;100790.75;5034242;28;20042;-77
2021/06/26 04:30:11;;;;;;;6.68;5.97;;;;;;;14.49;85.87;100783.78;5019440;28;20076;-77
2021/06/26 04:32:38;;;;;;;7.90;5.80;;;;;;;14.49;85.81;100782.94;5027080;28;20072;-77
2021/06/26 04:35:05;;;;;;;6.35;5.75;;;;;;;14.54;86.00;100784.13;5029561;28;20509;-77
2021/06/26 04:37:30;;;;;;;6.00;5.40;;;;;;;14.60;85.91;100791.41;5020519;28;20042;-77
2021/06/26 04:39:55;;;;;;;6.55;5.53;;;;;;;14.65;85.87;100786.41;5030512;28;20120;-77
2021/06/26 04:42:21;;;;;;;7.25;5.60;;;;;;;14.69;85.54;100789.56;5037426;28;20033;-77
2021/06/26 04:44:46;;;;;;;6.93;4.80;;;;;;;14.73;85.78;100790.03;5019185;28;20038;-77
2021/06/26 04:47:12;;;;;;;7.40;6.60;;;;;;;14.70;85.11;100787.72;5032263;28;20034;-78
2021/06/26 04:49:37;;;;;;;10.00;7.80;;;;;;;14.77;85.12;100786.03;5041121;28;20046;-77
2021/06/26 04:52:04;;;;;;;10.48;7.45;;;;;;;14.82;84.88;100787.16;5011637;28;20755;-78
2021/06/26 04:54:29;;;;;;;8.30;7.30;;;;;;;14.91;84.95;100790.63;5031126;28;20091;-78
2021/06/26 04:56:55;;;;;;;9.95;8.18;;;;;;;15.05;83.51;100789.06;5043402;28;20521;-78
2021/06/26 04:59:20;;;;;;;8.35;7.45;;;;;;;15.01;83.99;100791.25;5040385;28;20033;-78
2021/06/26 05:01:46;;;;;;;9.32;7.38;;;;;;;15.01;84.17;100791.25;5025072;28;20046;-78
2021/06/26 05:04:11;;;;;;;8.10;7.30;;;;;;;15.14;83.66;100800.53;5025043;28;20033;-78
2021/06/26 05:06:36;;;;;;;8.65;7.68;;;;;;;15.22;83.47;100797.81;5016132;28;20084;-78
2021/06/26 05:09:02;;;;;;;9.10;7.70;;;;;;;15.28;83.54;100800.59;5026299;28;20037;-78
2021/06/26 05:11:27;;;;;;;8.68;7.70;;;;;;;15.26;83.09;100801.78;5025123;28;20128;-79
2021/06/26 05:13:53;;;;;;;7.07;6.38;;;;;;;15.28;83.51;100805.09;5042606;28;20083;-78
2021/06/26 05:16:18;;;;;;;7.35;6.55;;;;;;;15.30;83.72;100803.06;5020871;28;20034;-78
2021/06/26 05:18:43;;;;;;;8.70;6.82;;;;;;;15.37;83.69;100809.34;5020897;28;20107;-79
2021/06/26 05:21:08;;;;;;;10.68;8.00;;;;;;;15.55;82.77;100816.25;5027898;28;20084;-78
2021/06/26 05:23:34;;;;;;;8.32;7.20;;;;;;;15.64;83.03;100812.53;5046634;28;20030;-79
2021/06/26 05:25:59;;;;;;;8.25;7.32;;;;;;;15.62;82.52;100809.22;5029625;28;20124;-79
2021/06/26 05:28:25;;;;;;;8.98;7.25;;;;;;;15.58;83.13;100807.91;5025007;28;20045;-79
2021/06/26 05:30:51;;;;;;;6.85;6.18;;;;;;;15.63;83.32;100813.53;5013138;28;20053;-78
2021/06/26 05:33:16;;;;;;;6.93;6.20;;;;;;;15.70;83.42;100807.31;5031163;28;20034;-79
2021/06/26 05:35:43;;;;;;;7.47;6.63;;;;;;;15.81;83.60;100816.75;5018915;28;20033;-78
2021/06/26 05:38:08;;;;;;;7.63;6.82;;;;;;;15.88;82.91;100814.22;5026143;28;20526;-78
2021/06/26 05:40:33;;;;;;;7.88;6.05;;;;;;;16.07;83.08;100802.19;5017887;28;20030;-78
2021/06/26 05:42:59;;;;;;;10.02;6.35;;;;;;;16.17;83.10;100800.09;5017487;28;20042;-78
2021/06/26 05:45:24;;;;;;;9.02;7.28;;;;;;;16.41;82.13;100814.22;5028352;28;20088;-78
2021/06/26 05:47:49;;;;;;;8.57;7.40;;;;;;;16.57;81.28;100816.69;5037145;28;20033;-79
2021/06/26 05:50:15;;;;;;;7.25;6.28;;;;;;;16.53;80.62;100818.91;5021929;28;20478;-78
2021/06/26 05:52:49;;;;;;;6.95;5.75;;;;;;;16.60;80.70;100816.31;5022218;28;20109;-79
2021/06/26 05:55:15;;;;;;;7.10;5.90;;;;;;;16.81;80.61;100818.28;5025177;28;20040;-78
2021/06/26 05:57:41;;;;;;;6.53;5.80;;;;;;;17.13;79.78;100813.53;5021358;28;20179;-79
2021/06/26 06:00:07;;;;;;;6.18;5.57;;;;;;;17.51;79.89;100811.47;5025410;28;20077;-79
2021/06/26 06:02:32;;;;;;;6.88;5.13;;;;;;;17.87;78.63;100815.13;5033437;28;20092;-79
2021/06/26 06:04:57;;;;;;;5.07;4.40;;;;;;;18.27;79.33;100818.97;5040984;28;20037;-78
2021/06/26 06:07:23;;;;;;;4.10;3.63;;;;;;;18.74;78.42;100820.06;5038014;28;20573;-78
2021/06/26 06:09:48;;;;;;;5.18;4.57;;;;;;;19.14;77.11;100822.97;5043079;28;20109;-78
2021/06/26 06:12:13;;;;;;;5.43;4.50;;;;;;;19.52;77.15;100822.44;5030880;28;20041;-78
2021/06/26 06:14:38;;;;;;;6.85;4.80;;;;;;;19.82;73.40;100819.41;5037040;28;20040;-78
2021/06/26 06:17:04;;;;;;;5.85;5.13;;;;;;;20.17;74.48;100814.66;5025219;28;20038;-78
2021/06/26 06:19:29;;;;;;;4.97;4.47;;;;;;;20.52;74.00;100817.06;5032853;28;20129;-78
2021/06/26 06:21:54;;;;;;;5.32;4.57;;;;;;;20.90;70.32;100806.44;5031017;28;20041;-78
2021/06/26 06:24:20;;;;;;;5.95;5.35;;;;;;;20.80;69.45;100814.13;5031124;28;20179;-78
2021/06/26 06:26:45;;;;;;;7.30;6.50;;;;;;;21.09;68.56;100815.44;5028195;28;20060;-78
2021/06/26 06:29:10;;;;;;;7.00;5.80;;;;;;;21.14;67.95;100823.72;5033635;28;20078;-79
2021/06/26 06:31:36;;;;;;;5.05;4.55;;;;;;;21.11;68.23;100820.63;5023412;28;20338;-78
2021/06/26 06:34:01;;;;;;;5.95;5.30;;;;;;;21.42;65.82;100826.06;5035829;28;20033;-79
2021/06/26 06:36:26;;;;;;;5.10;4.60;;;;;;;21.70;68.17;100821.34;5029305;28;20045;-79
2021/06/26 06:38:52;;;;;;;4.05;3.58;;;;;;;21.97;67.67;100836.25;5036383;28;20035;-79
2021/06/26 06:41:18;;;;;;;5.25;4.15;;;;;;;22.37;67.00;100830.53;5038334;28;20040;-78
2021/06/26 06:43:43;;;;;;;4.80;4.30;;;;;;;22.46;66.33;100833.78;5043765;28;20104;-79
2021/06/26 06:46:08;;;;;;;5.18;4.63;;;;;;;22.43;65.33;100835.06;5031432;28;20441;-78
2021/06/26 06:48:34;;;;;;;5.10;4.10;;;;;;;22.54;63.99;100833.47;5031939;28;20026;-78
2021/06/26 06:50:59;;;;;;;4.25;3.80;;;;;;;22.98;63.74;100833.41;5030119;28;20585;-79
2021/06/26 06:53:25;;;;;;;4.45;3.50;;;;;;;23.59;64.26;100827.00;5031916;28;20044;-78
2021/06/26 06:55:57;;;;;;;3.75;3.20;;;;;;;24.04;63.08;100828.41;5035996;28;20034;-79
2021/06/26 06:58:23;;;;;;;4.90;4.07;;;;;;;24.14;60.14;100829.44;5040888;28;20036;-79
2021/06/26 07:00:48;;;;;;;3.63;3.20;;;;;;;24.25;60.68;100835.13;5033743;28;20085;-79
2021/06/26 07:03:13;;;;;;;4.70;3.50;;;;;;;24.64;61.73;100830.06;5018104;28;20129;-79
2021/06/26 07:05:40;;;;;;;5.30;3.10;;;;;;;24.82;60.53;100834.50;5027030;28;20038;-79
2021/06/26 07:08:05;;;;;;;3.47;3.15;;;;;;;24.86;57.31;100835.66;5029964;28;20064;-79
2021/06/26 07:10:30;;;;;;;3.80;3.20;;;;;;;25.23;59.16;100836.16;5040289;28;20498;-79
2021/06/26 07:12:56;;;;;;;4.00;3.58;;;;;;;25.54;54.26;100821.28;5049128;28;20461;-79
2021/06/26 07:15:21;;;;;;;4.65;3.88;;;;;;;25.60;57.73;100825.75;5027602;28;20029;-79
2021/06/26 07:17:46;;;;;;;3.85;3.45;;;;;;;25.67;56.31;100824.75;5024265;28;20234;-79
2021/06/26 07:20:13;;;;;;;5.47;3.90;;;;;;;25.62;56.09;100818.19;5033761;28;20109;-79
2021/06/26 07:22:38;;;;;;;4.25;3.47;;;;;;;25.84;55.68;100821.00;5034266;28;20032;-79
2021/06/26 07:25:04;;;;;;;3.67;3.00;;;;;;;26.15;54.88;100820.66;5034142;28;20316;-80
2021/06/26 07:27:29;;;;;;;3.83;2.80;;;;;;;26.58;54.12;100824.56;5037626;28;20035;-79
2021/06/26 07:29:54;;;;;;;3.15;2.50;;;;;;;26.84;55.46;100823.81;5046834;28;20128;-79
2021/06/26 07:32:20;;;;;;;2.88;2.30;;;;;;;27.15;53.51;100817.91;5034288;28;20045;-79
2021/06/26 07:34:45;;;;;;;6.07;5.10;;;;;;;27.54;48.78;100810.47;5048498;28;20072;-79
2021/06/26 07:37:11;;;;;;;3.75;2.90;;;;;;;27.38;50.38;100816.81;5034165;28;20037;-79
2021/06/26 07:39:36;;;;;;;3.22;2.60;;;;;;;27.51;48.48;100800.13;5049750;28;20079;-80
2021/06/26 07:42:01;;;;;;;3.45;2.75;;;;;;;27.81;50.14;100796.00;5048521;28;20099;-79
2021/06/26 07:44:27;;;;;;;5.45;4.03;;;;;;;27.99;45.92;100798.34;5034341;28;20030;-79
2021/06/26 07:46:52;;;;;;;3.83;2.90;;;;;;;27.79;46.95;100792.72;5034024;28;20033;-79
2021/06/26 07:49:18;;;;;;;2.95;2.20;;;;;;;28.11;47.28;100798.16;5034268;28;20494;-79
2021/06/26 07:51:43;;;;;;;2.55;2.30;;;;;;;28.53;49.22;100790.00;5034779;28;20038;-80
2021/06/26 07:54:09;;;;;;;3.55;2.72;;;;;;;28.47;44.95;100790.22;5037939;28;20102;-80
2021/06/26 07:56:34;;;;;;;2.88;2.20;;;;;;;28.66;47.48;100783.25;5037082;28;20087;-80
2021/06/26 07:59:00;;;;;;;3.50;2.60;;;;;;;28.86;47.15;100784.38;5036962;28;20401;-80
2021/06/26 08:01:26;;;;;;;3.30;2.10;;;;;;;29.05;46.38;100787.44;5036863;28;20041;-80
2021/06/26 08:03:51;;;;;;;3.45;2.38;;;;;;;29.00;44.25;100777.34;5036238;28;20132;-80
2021/06/26 08:06:16;;;;;;;3.58;2.72;;;;;;;29.07;41.72;100774.41;5035820;28;20093;-80
2021/06/26 08:08:42;;;;;;;4.00;2.45;;;;;;;29.05;43.49;100782.00;5036920;28;20029;-79
2021/06/26 08:11:07;;;;;;;3.30;2.40;;;;;;;29.30;43.31;100786.72;5035069;28;20045;-80
2021/06/26 08:13:32;;;;;;;3.58;2.70;;;;;;;29.41;42.20;100781.00;5068050;28;20044;-80
2021/06/26 08:15:58;;;;;;;3.00;2.10;;;;;;;29.55;43.44;100775.81;5045106;28;20036;-79
2021/06/26 08:18:23;;;;;;;5.05;3.10;;;;;;;29.72;41.38;100775.56;5050605;28;20041;-79
2021/06/26 08:20:48;;;;;;;3.53;2.60;;;;;;;29.58;42.08;100771.72;5035510;28;20025;-79
2021/06/26 08:23:14;;;;;;;3.45;2.63;;;;;;;29.72;42.45;100769.28;5035840;28;20040;-79
2021/06/26 08:25:40;;;;;;;2.60;2.10;;;;;;;30.08;42.20;100769.22;5034244;28;20564;-80
2021/06/26 08:28:05;;;;;;;5.03;2.85;;;;;;;30.04;41.79;100767.06;5050023;28;20135;-80
2021/06/26 08:30:31;;;;;;;2.72;2.38;;;;;;;30.33;40.98;100771.94;5035709;28;20054;-80
2021/06/26 08:32:57;;;;;;;2.92;2.10;;;;;;;30.63;37.84;100767.44;5039930;28;20412;-80
2021/06/26 08:35:22;;;;;;;2.65;1.90;;;;;;;30.99;40.58;100770.84;5060319;28;20569;-80
2021/06/26 08:37:50;;;;;;;2.83;2.25;;;;;;;31.49;39.77;100766.13;5041975;28;20553;-80
2021/06/26 08:40:16;;;;;;;2.28;1.90;;;;;;;31.90;37.84;100765.75;5052508;28;20143;-79
2021/06/26 08:42:42;;;;;;;3.35;1.85;;;;;;;32.06;37.13;100757.41;5042005;28;20056;-80
2021/06/26 08:45:17;;;;;;;3.53;2.20;;;;;;;32.07;36.92;100759.84;5055027;28;20498;-80
2021/06/26 08:47:45;;;;;;;2.65;2.08;;;;;;;32.38;36.96;100754.84;5014353;28;20042;-79
2021/06/26 08:50:11;;;;;;;4.65;2.92;;;;;;;32.98;33.43;100765.28;5032829;28;20423;-79
2021/06/26 08:52:36;;;;;;;4.05;2.45;;;;;;;32.58;34.53;100762.03;5049279;28;20097;-79
2021/06/26 08:55:02;;;;;;;2.80;2.05;;;;;;;32.05;34.79;100753.84;5033114;28;20041;-80
2021/06/26 08:57:30;;;;;;;3.78;2.90;;;;;;;32.31;33.12;100762.59;5034268;28;20433;-79
2021/06/26 08:59:55;;;;;;;2.85;2.00;;;;;;;32.06;34.03;100762.88;5033461;28;20326;-80
2021/06/26 09:02:22;;;;;;;3.08;2.20;;;;;;;32.47;34.42;100756.94;5034110;28;20215;-80
2021/06/26 09:04:47;;;;;;;2.38;2.00;;;;;;;32.78;34.77;100755.44;5033626;28;20168;-80
2021/06/26 09:07:12;;;;;;;2.50;2.08;;;;;;;33.12;33.21;100748.13;5032484;28;20045;-80
2021/06/26 09:09:38;;;;;;;2.38;1.90;;;;;;;33.34;33.27;100751.06;5048326;28;20033;-80
2021/06/26 09:12:11;;;;;;;4.30;2.42;;;;;;;33.10;33.06;100748.41;5052711;28;20037;-80
2021/06/26 09:14:39;;;;;;;3.72;1.98;;;;;;;32.26;34.61;100748.16;5049069;28;20037;-80
2021/06/26 09:17:06;;;;;;;3.08;2.10;;;;;;;31.88;35.37;100757.00;5033651;28;20061;-80
2021/06/26 09:19:33;;;;;;;2.78;1.95;;;;;;;31.68;36.88;100757.22;5047850;28;20201;-80
2021/06/26 09:22:09;;;;;;;4.80;2.53;;;;;;;31.10;37.33;100757.91;5033844;28;20033;-80
2021/06/26 09:24:42;;;;;;;3.22;2.10;;;;;;;30.75;37.28;100759.75;5033272;28;20041;-80
2021/06/26 09:27:10;;;;;;;3.72;2.60;;;;;;;30.59;35.74;100750.81;5035794;28;20041;-79
2021/06/26 09:29:35;;;;;;;4.30;2.95;;;;;;;30.06;37.07;100747.72;5036445;28;20087;-80
2021/06/26 09:32:04;;;;;;;3.85;3.00;;;;;;;29.02;39.19;100746.03;5036309;28;20037;-79
2021/06/26 09:34:39;;;;;;;3.15;2.60;;;;;;;28.22;42.13;100750.09;5070266;28;20418;-79
2021/06/26 09:37:09;;;;;;;3.97;2.80;;;;;;;28.20;40.99;100758.53;5038951;28;20034;-79
2021/06/26 09:39:40;;;;;;;5.85;3.90;;;;;;;28.20;40.94;100761.25;5038160;28;20041;-79
2021/06/26 09:42:15;;;;;;;4.43;3.67;;;;;;;27.95;41.04;100767.34;5036360;28;20108;-79
2021/06/26 09:44:57;;;;;;;5.00;3.70;;;;;;;27.31;41.57;100763.53;5051454;28;20041;-78
2021/06/26 09:47:36;;;;;;;4.72;3.72;;;;;;;27.14;42.49;100760.09;5042614;28;20086;-79
2021/06/26 09:50:20;;;;;;;3.38;3.08;;;;;;;27.10;42.97;100762.50;5064881;28;20148;-79
2021/06/26 09:52:53;;;;;;;5.72;4.15;;;;;;;27.22;42.78;100754.25;5035496;28;20567;-79
2021/06/26 09:55:25;;;;;;;5.13;3.75;;;;;;;27.20;44.26;100761.00;5052181;28;20046;-80
2021/06/26 09:57:53;;;;;;;5.45;3.40;;;;;;;27.06;44.62;100757.84;5036084;28;20036;-80
2021/06/26 10:00:21;;;;;;;4.78;3.75;;;;;;;27.16;43.00;100759.84;5035033;28;20034;-79
2021/06/26 10:02:47;;;;;;;5.05;3.40;;;;;;;27.09;43.51;100743.75;5036233;28;20514;-80
2021/06/26 10:05:14;;;;;;;4.90;4.40;;;;;;;27.23;43.22;100750.44;5051178;28;20060;-79
2021/06/26 10:07:41;;;;;;;4.25;3.33;;;;;;;27.26;43.34;100755.34;5035791;28;20084;-79
2021/06/26 10:10:10;;;;;;;5.15;3.47;;;;;;;27.21;43.15;100747.16;5035479;28;20498;-79
2021/06/26 10:12:36;;;;;;;5.07;3.60;;;;;;;27.10;43.02;100745.38;5034853;28;20033;-79
2021/06/26 10:15:02;;;;;;;4.10;3.40;;;;;;;27.09;44.77;100746.47;5036133;28;20084;-79
2021/06/26 10:17:28;;;;;;;5.38;3.60;;;;;;;26.87;43.83;100739.19;5035425;28;20041;-79
2021/06/26 10:19:55;;;;;;;4.32;3.13;;;;;;;27.26;43.95;100739.06;5050316;28;20041;-79
2021/06/26 10:22:21;;;;;;;6.85;3.88;;;;;;;27.53;42.61;100739.03;5055686;28;20041;-79
2021/06/26 10:24:47;;;;;;;5.20;3.58;;;;;;;27.56;43.24;100737.69;5051925;28;20026;-79
2021/06/26 10:27:21;;;;;;;5.47;3.25;;;;;;;27.64;43.96;100726.31;5035812;28;20127;-79
2021/06/26 10:29:46;;;;;;;4.57;3.50;;;;;;;27.91;42.42;100729.00;5035641;28;20058;-79
2021/06/26 10:32:15;;;;;;;4.40;3.30;;;;;;;27.72;42.86;100733.16;5035517;28;20084;-79
2021/06/26 10:34:44;;;;;;;4.50;3.17;;;;;;;27.58;42.18;100735.53;5050865;28;20034;-79
2021/06/26 10:37:17;;;;;;;6.40;4.28;;;;;;;27.75;41.32;100721.78;5035486;28;20034;-79
2021/06/26 10:39:43;;;;;;;6.10;3.25;;;;;;;27.48;42.11;100717.25;5049829;28;20064;-79
2021/06/26 10:42:14;;;;;;;3.45;2.90;;;;;;;27.50;42.98;100717.78;5034414;28;20474;-78
2021/06/26 10:44:53;;;;;;;3.50;2.60;;;;;;;27.66;43.14;100715.22;5050368;28;20029;-79
2021/06/26 10:47:39;;;;;;;4.60;3.25;;;;;;;27.75;41.79;100724.50;5040054;28;20091;-79
2021/06/26 10:50:12;;;;;;;4.00;3.15;;;;;;;27.78;41.20;100718.53;5053331;28;20041;-79
2021/06/26 10:52:55;;;;;;;3.30;2.70;;;;;;;27.91;42.61;100717.28;5049848;28;20043;-79
2021/06/26 10:55:29;;;;;;;2.13;1.92;;;;;;;28.19;42.47;100716.09;5032994;28;20308;-78
2021/06/26 10:57:55;;;;;;;3.88;3.08;;;;;;;28.34;39.45;100720.75;5033274;28;20045;-78
2021/06/26 11:00:35;;;;;;;4.05;3.03;;;;;;;28.12;38.45;100713.59;5036786;28;20040;-79
2021/06/26 11:03:01;;;;;;;3.95;2.60;;;;;;;27.90;39.78;100712.94;5035455;28;20224;-78
2021/06/26 11:05:35;;;;;;;4.22;3.20;;;;;;;28.04;39.95;100710.59;5034753;28;20521;-79
2021/06/26 11:08:01;;;;;;;3.50;2.63;;;;;;;27.91;40.39;100709.13;5014696;28;20042;-79
2021/06/26 11:10:26;;;;;;;3.00;2.50;;;;;;;28.11;41.04;100701.09;5014793;28;20419;-78
2021/06/26 11:12:52;;;;;;;3.15;2.30;;;;;;;28.21;40.63;100699.50;5045261;28;20040;-78
2021/06/26 11:15:29;;;;;;;3.30;2.88;;;;;;;27.96;42.54;100692.88;5043653;28;20173;-79
2021/06/26 11:17:55;;;;;;;3.60;2.67;;;;;;;28.14;40.81;100699.75;5034481;28;20051;-79
2021/06/26 11:20:21;;;;;;;3.40;2.72;;;;;;;28.29;42.12;100693.56;5034361;28;20116;-78